Time,TemperatureF,DewpointF,PressureIn,WindDirection,WindDirectionDegrees,WindSpeedMPH,WindSpeedGustMPH,Humidity,HourlyPrecipIn,Conditions,Clouds,dailyrainin,SoftwareType,DateUTC
2013-01-25 00:08:00,56.9,54.3,30.19,WNW,291,2.0,2.0,91,0.00,,,0.00,Wunderground v.1.15,2013-01-25 06:08:00,
2013-01-25 00:18:00,56.8,54.2,30.18,WNW,291,2.0,2.0,91,0.00,,,0.00,Wunderground v.1.15,2013-01-25 06:18:00,
2013-01-25 00:23:00,56.7,54.1,30.19,WNW,290,2.0,2.0,91,0.00,,,0.00,Wunderground v.1.15,2013-01-25 06:23:00,
2013-01-25 00:28:00,56.6,54.0,30.19,WNW,290,1.0,2.0,91,0.00,,,0.00,Wunderground v.1.15,2013-01-25 06:28:00,
2013-01-25 00:33:00,56.4,54.1,30.19,WNW,290,1.0,3.0,92,0.00,,,0.00,Wunderground v.1.15,2013-01-25 06:33:00,
2013-01-25 00:38:00,56.2,53.9,30.19,WNW,290,1.0,1.0,92,0.00,,,0.00,Wunderground v.1.15,2013-01-25 06:38:00,
2013-01-25 00:43:00,56.2,53.9,30.19,WNW,290,0.0,3.0,92,0.00,,,0.00,Wunderground v.1.15,2013-01-25 06:43:00,
2013-01-25 00:53:00,56.0,53.4,30.19,WNW,290,0.0,3.0,91,0.00,,,0.00,Wunderground v.1.15,2013-01-25 06:53:00,
2013-01-25 00:58:00,55.7,53.1,30.19,WNW,290,0.0,0.0,91,0.00,,,0.00,Wunderground v.1.15,2013-01-25 06:58:00,
2013-01-25 01:23:00,54.2,51.9,30.19,WNW,290,0.0,0.0,92,0.00,,,0.00,Wunderground v.1.15,2013-01-25 07:23:00,
2013-01-25 01:28:00,54.0,51.4,30.19,WNW,290,0.0,0.0,91,0.00,,,0.00,Wunderground v.1.15,2013-01-25 07:28:00,
2013-01-25 01:33:00,53.7,51.1,30.18,WNW,290,0.0,3.0,91,0.00,,,0.00,Wunderground v.1.15,2013-01-25 07:33:00,
2013-01-25 01:43:00,53.1,50.5,30.18,WNW,290,0.0,3.0,91,0.00,,,0.00,Wunderground v.1.15,2013-01-25 07:43:00,
2013-01-25 01:53:00,52.2,49.7,30.18,WNW,290,0.0,3.0,91,0.00,,,0.00,Wunderground v.1.15,2013-01-25 07:53:00,
2013-01-25 01:58:00,51.8,49.3,30.18,WNW,290,0.0,0.0,91,0.00,,,0.00,Wunderground v.1.15,2013-01-25 07:58:00,
2013-01-25 02:08:00,51.2,48.7,30.18,WNW,290,0.0,0.0,91,0.00,,,0.00,Wunderground v.1.15,2013-01-25 08:08:00,
2013-01-25 02:18:00,51.7,50.0,30.18,WNW,290,0.0,0.0,94,0.00,,,0.00,Wunderground v.1.15,2013-01-25 08:18:00,
2013-01-25 02:23:00,52.2,50.5,30.18,WNW,290,0.0,0.0,94,0.00,,,0.00,Wunderground v.1.15,2013-01-25 08:23:00,
2013-01-25 02:28:00,52.4,50.7,30.18,WNW,290,0.0,0.0,94,0.00,,,0.00,Wunderground v.1.15,2013-01-25 08:28:00,
2013-01-25 02:38:00,52.0,50.0,30.17,WNW,290,0.0,0.0,93,0.00,,,0.00,Wunderground v.1.15,2013-01-25 08:38:00,
2013-01-25 02:43:00,51.5,49.3,30.17,WNW,290,0.0,0.0,92,0.00,,,0.00,Wunderground v.1.15,2013-01-25 08:43:00,
2013-01-25 02:48:00,51.2,49.2,30.17,WNW,290,0.0,0.0,93,0.00,,,0.00,Wunderground v.1.15,2013-01-25 08:48:00,
2013-01-25 02:58:00,50.8,48.8,30.17,WNW,290,0.0,0.0,93,0.00,,,0.00,Wunderground v.1.15,2013-01-25 08:58:00,
2013-01-25 03:08:00,50.5,48.6,30.17,WNW,290,0.0,0.0,93,0.00,,,0.00,Wunderground v.1.15,2013-01-25 09:08:00,
2013-01-25 03:13:00,50.3,48.4,30.17,WNW,290,0.0,0.0,93,0.00,,,0.00,Wunderground v.1.15,2013-01-25 09:13:00,
2013-01-25 03:18:00,50.1,48.2,30.17,WNW,290,0.0,0.0,93,0.00,,,0.00,Wunderground v.1.15,2013-01-25 09:18:00,
2013-01-25 03:23:00,49.9,48.0,30.17,WNW,290,0.0,0.0,93,0.00,,,0.00,Wunderground v.1.15,2013-01-25 09:23:00,
2013-01-25 03:33:00,49.7,47.8,30.17,WNW,290,0.0,0.0,93,0.00,,,0.00,Wunderground v.1.15,2013-01-25 09:33:00,
2013-01-25 03:43:00,49.3,47.4,30.17,WNW,290,0.0,0.0,93,0.00,,,0.00,Wunderground v.1.15,2013-01-25 09:43:00,
2013-01-25 03:48:00,49.3,47.6,30.17,WNW,290,0.0,0.0,94,0.00,,,0.00,Wunderground v.1.15,2013-01-25 09:48:00,
2013-01-25 03:53:00,49.3,47.4,30.17,WNW,290,0.0,0.0,93,0.00,,,0.00,Wunderground v.1.15,2013-01-25 09:53:00,
2013-01-25 03:58:00,49.2,47.3,30.17,WNW,290,0.0,0.0,93,0.00,,,0.00,Wunderground v.1.15,2013-01-25 09:58:00,
2013-01-25 04:08:00,49.0,47.3,30.17,WNW,290,0.0,0.0,94,0.00,,,0.00,Wunderground v.1.15,2013-01-25 10:08:00,
2013-01-25 04:13:00,48.9,47.0,30.17,WNW,290,0.0,0.0,93,0.00,,,0.00,Wunderground v.1.15,2013-01-25 10:13:00,
2013-01-25 04:18:00,48.8,46.9,30.16,WNW,290,0.0,0.0,93,0.00,,,0.00,Wunderground v.1.15,2013-01-25 10:18:00,
2013-01-25 04:23:00,48.7,46.8,30.17,WNW,290,0.0,0.0,93,0.00,,,0.00,Wunderground v.1.15,2013-01-25 10:23:00,
2013-01-25 04:28:00,48.6,46.7,30.17,WNW,290,0.0,0.0,93,0.00,,,0.00,Wunderground v.1.15,2013-01-25 10:28:00,
2013-01-25 04:33:00,48.4,46.5,30.17,WNW,290,0.0,0.0,93,0.00,,,0.00,Wunderground v.1.15,2013-01-25 10:33:00,
2013-01-25 04:38:00,48.4,46.8,30.17,WNW,290,0.0,0.0,94,0.00,,,0.00,Wunderground v.1.15,2013-01-25 10:38:00,
2013-01-25 04:43:00,48.4,46.8,30.17,WNW,290,0.0,0.0,94,0.00,,,0.00,Wunderground v.1.15,2013-01-25 10:43:00,
2013-01-25 04:48:00,48.3,46.4,30.17,WNW,290,0.0,0.0,93,0.00,,,0.00,Wunderground v.1.15,2013-01-25 10:48:00,
2013-01-25 04:53:00,48.2,46.3,30.18,WNW,290,0.0,0.0,93,0.00,,,0.00,Wunderground v.1.15,2013-01-25 10:53:00,
2013-01-25 04:59:00,48.1,46.5,30.17,WNW,290,0.0,0.0,94,0.00,,,0.00,Wunderground v.1.15,2013-01-25 10:59:00,
2013-01-25 05:08:00,47.9,46.0,30.18,WNW,290,0.0,0.0,93,0.00,,,0.00,Wunderground v.1.15,2013-01-25 11:08:00,
2013-01-25 05:13:00,47.8,45.9,30.18,WNW,290,0.0,0.0,93,0.00,,,0.00,Wunderground v.1.15,2013-01-25 11:13:00,
2013-01-25 05:18:00,47.7,46.1,30.18,WNW,290,0.0,0.0,94,0.00,,,0.00,Wunderground v.1.15,2013-01-25 11:18:00,
2013-01-25 05:23:00,47.4,45.5,30.18,WNW,290,0.0,0.0,93,0.00,,,0.00,Wunderground v.1.15,2013-01-25 11:23:00,
2013-01-25 05:28:00,47.1,45.2,30.18,WNW,290,0.0,0.0,93,0.00,,,0.00,Wunderground v.1.15,2013-01-25 11:28:00,
2013-01-25 05:33:00,47.0,45.1,30.18,WNW,290,0.0,0.0,93,0.00,,,0.00,Wunderground v.1.15,2013-01-25 11:33:00,
2013-01-25 05:43:00,46.7,44.8,30.19,WNW,290,0.0,0.0,93,0.00,,,0.00,Wunderground v.1.15,2013-01-25 11:43:00,
2013-01-25 05:48:00,46.7,45.1,30.19,WNW,290,0.0,0.0,94,0.00,,,0.00,Wunderground v.1.15,2013-01-25 11:48:00,
2013-01-25 05:53:00,46.6,45.0,30.19,WNW,290,0.0,0.0,94,0.00,,,0.00,Wunderground v.1.15,2013-01-25 11:53:00,
2013-01-25 05:59:00,46.6,45.0,30.19,WNW,290,0.0,0.0,94,0.00,,,0.00,Wunderground v.1.15,2013-01-25 11:59:00,
2013-01-25 06:08:00,46.5,44.9,30.20,WNW,290,0.0,0.0,94,0.00,,,0.00,Wunderground v.1.15,2013-01-25 12:08:00,
2013-01-25 06:18:00,46.4,44.8,30.20,WNW,290,0.0,0.0,94,0.00,,,0.00,Wunderground v.1.15,2013-01-25 12:18:00,
2013-01-25 06:23:00,46.3,44.7,30.20,WNW,290,0.0,0.0,94,0.00,,,0.00,Wunderground v.1.15,2013-01-25 12:23:00,
2013-01-25 06:28:00,46.3,44.7,30.20,WNW,290,0.0,0.0,94,0.00,,,0.00,Wunderground v.1.15,2013-01-25 12:28:00,
2013-01-25 06:33:00,46.2,44.6,30.20,WNW,290,0.0,0.0,94,0.00,,,0.00,Wunderground v.1.15,2013-01-25 12:33:00,
2013-01-25 06:38:00,46.0,44.4,30.20,WNW,290,0.0,0.0,94,0.00,,,0.00,Wunderground v.1.15,2013-01-25 12:38:00,
2013-01-25 06:43:00,45.8,44.2,30.20,WNW,290,0.0,0.0,94,0.00,,,0.00,Wunderground v.1.15,2013-01-25 12:43:00,
2013-01-25 06:53:00,45.2,43.3,30.21,WNW,290,0.0,0.0,93,0.00,,,0.00,Wunderground v.1.15,2013-01-25 12:53:00,
2013-01-25 06:59:00,45.2,43.6,30.20,WNW,290,0.0,0.0,94,0.00,,,0.00,Wunderground v.1.15,2013-01-25 12:59:00,
2013-01-25 07:08:00,45.4,43.8,30.20,WNW,290,0.0,0.0,94,0.00,,,0.00,Wunderground v.1.15,2013-01-25 13:08:00,
2013-01-25 07:13:00,45.3,43.7,30.20,WNW,290,0.0,0.0,94,0.00,,,0.00,Wunderground v.1.15,2013-01-25 13:13:00,
2013-01-25 07:18:00,45.2,43.6,30.20,WNW,290,0.0,0.0,94,0.00,,,0.00,Wunderground v.1.15,2013-01-25 13:18:00,
2013-01-25 07:28:00,45.3,43.7,30.21,WNW,290,0.0,0.0,94,0.00,,,0.00,Wunderground v.1.15,2013-01-25 13:28:00,
2013-01-25 07:33:00,45.5,43.9,30.21,WNW,290,0.0,0.0,94,0.00,,,0.00,Wunderground v.1.15,2013-01-25 13:33:00,
2013-01-25 07:38:00,46.0,44.6,30.21,WNW,290,0.0,0.0,95,0.00,,,0.00,Wunderground v.1.15,2013-01-25 13:38:00,
2013-01-25 07:43:00,46.5,45.1,30.22,WNW,290,0.0,0.0,95,0.00,,,0.00,Wunderground v.1.15,2013-01-25 13:43:00,
2013-01-25 07:48:00,47.0,45.6,30.22,WNW,290,0.0,0.0,95,0.00,,,0.00,Wunderground v.1.15,2013-01-25 13:48:00,
2013-01-25 07:59:00,48.1,46.7,30.22,SSW,213,1.0,1.0,95,0.00,,,0.00,Wunderground v.1.15,2013-01-25 13:59:00,
2013-01-25 08:08:00,48.8,47.4,30.22,SSW,212,1.0,1.0,95,0.00,,,0.00,Wunderground v.1.15,2013-01-25 14:08:00,
2013-01-25 08:13:00,49.2,47.8,30.22,SSW,210,1.0,1.0,95,0.00,,,0.00,Wunderground v.1.15,2013-01-25 14:13:00,
2013-01-25 08:18:00,49.6,48.2,30.22,SSW,209,1.0,1.0,95,0.00,,,0.00,Wunderground v.1.15,2013-01-25 14:18:00,
2013-01-25 08:23:00,49.9,48.5,30.22,South,190,1.0,1.0,95,0.00,,,0.00,Wunderground v.1.15,2013-01-25 14:23:00,
2013-01-25 08:33:00,50.8,49.4,30.23,South,190,1.0,1.0,95,0.00,,,0.00,Wunderground v.1.15,2013-01-25 14:33:00,
2013-01-25 08:38:00,51.2,49.8,30.22,South,190,0.0,0.0,95,0.00,,,0.00,Wunderground v.1.15,2013-01-25 14:38:00,
2013-01-25 08:43:00,51.7,50.3,30.23,South,189,0.0,0.0,95,0.00,,,0.00,Wunderground v.1.15,2013-01-25 14:43:00,
2013-01-25 08:48:00,52.3,50.9,30.23,South,189,0.0,0.0,95,0.00,,,0.00,Wunderground v.1.15,2013-01-25 14:48:00,
2013-01-25 08:53:00,52.6,51.2,30.23,South,189,0.0,0.0,95,0.00,,,0.00,Wunderground v.1.15,2013-01-25 14:53:00,
2013-01-25 08:59:00,53.1,51.7,30.23,South,189,0.0,0.0,95,0.00,,,0.00,Wunderground v.1.15,2013-01-25 14:59:00,
2013-01-25 09:08:00,54.1,53.0,30.23,South,189,0.0,0.0,96,0.00,,,0.00,Wunderground v.1.15,2013-01-25 15:08:00,
2013-01-25 09:13:00,54.8,53.7,30.23,South,189,0.0,0.0,96,0.00,,,0.00,Wunderground v.1.15,2013-01-25 15:13:00,
2013-01-25 09:18:00,55.4,54.3,30.23,South,189,0.0,0.0,96,0.00,,,0.00,Wunderground v.1.15,2013-01-25 15:18:00,
2013-01-25 09:23:00,56.0,54.9,30.23,South,189,0.0,0.0,96,0.00,,,0.00,Wunderground v.1.15,2013-01-25 15:23:00,
2013-01-25 09:28:00,56.9,55.8,30.23,South,189,0.0,0.0,96,0.00,,,0.00,Wunderground v.1.15,2013-01-25 15:28:00,
2013-01-25 09:33:00,57.7,56.6,30.23,South,189,0.0,4.0,96,0.00,,,0.00,Wunderground v.1.15,2013-01-25 15:33:00,
2013-01-25 09:43:00,59.1,57.7,30.23,WNW,301,0.0,4.0,95,0.00,,,0.00,Wunderground v.1.15,2013-01-25 15:43:00,
2013-01-25 09:48:00,59.8,58.1,30.22,WNW,288,1.0,4.0,94,0.00,,,0.00,Wunderground v.1.15,2013-01-25 15:48:00,
2013-01-25 09:53:00,61.1,59.1,30.22,WNW,299,2.0,4.0,93,0.00,,,0.00,Wunderground v.1.15,2013-01-25 15:53:00,
2013-01-25 09:58:00,62.3,59.6,30.22,WNW,293,2.0,3.0,91,0.00,,,0.00,Wunderground v.1.15,2013-01-25 15:58:00,
2013-01-25 10:08:00,63.9,60.3,30.21,WNW,296,4.0,4.0,88,0.00,,,0.00,Wunderground v.1.15,2013-01-25 16:08:00,
2013-01-25 10:13:00,64.5,59.9,30.21,WSW,247,5.0,6.0,85,0.00,,,0.00,Wunderground v.1.15,2013-01-25 16:13:00,
2013-01-25 10:18:00,64.9,59.9,30.21,WNW,300,5.0,5.0,84,0.00,,,0.00,Wunderground v.1.15,2013-01-25 16:18:00,
2013-01-25 10:23:00,65.5,60.5,30.21,WSW,252,6.0,6.0,84,0.00,,,0.00,Wunderground v.1.15,2013-01-25 16:23:00,
2013-01-25 10:28:00,66.1,61.1,30.21,West,281,5.0,7.0,84,0.00,,,0.00,Wunderground v.1.15,2013-01-25 16:28:00,
2013-01-25 10:33:00,66.5,60.8,30.21,WNW,290,5.0,7.0,82,0.00,,,0.00,Wunderground v.1.15,2013-01-25 16:33:00,
2013-01-25 10:38:00,66.9,60.5,30.21,West,281,6.0,7.0,80,0.00,,,0.00,Wunderground v.1.15,2013-01-25 16:38:00,
2013-01-25 10:48:00,67.2,60.8,30.20,WSW,245,6.0,6.0,80,0.00,,,0.00,Wunderground v.1.15,2013-01-25 16:48:00,
2013-01-25 10:53:00,67.4,60.3,30.20,West,277,6.0,6.0,78,0.00,,,0.00,Wunderground v.1.15,2013-01-25 16:53:00,
2013-01-25 10:58:00,67.6,60.5,30.19,West,281,7.0,7.0,78,0.00,,,0.00,Wunderground v.1.15,2013-01-25 16:58:00,
2013-01-25 11:08:00,67.1,59.3,30.19,West,265,7.0,7.0,76,0.00,,,0.00,Wunderground v.1.15,2013-01-25 17:08:00,
2013-01-25 11:13:00,67.6,60.1,30.18,West,277,7.0,7.0,77,0.00,,,0.00,Wunderground v.1.15,2013-01-25 17:13:00,
2013-01-25 11:23:00,67.1,59.3,30.18,West,267,7.0,10.0,76,0.00,,,0.00,Wunderground v.1.15,2013-01-25 17:23:00,
2013-01-25 11:28:00,67.6,59.8,30.18,West,271,7.0,7.0,76,0.00,,,0.00,Wunderground v.1.15,2013-01-25 17:28:00,
2013-01-25 11:33:00,67.7,59.5,30.18,NW,315,7.0,9.0,75,0.00,,,0.00,Wunderground v.1.15,2013-01-25 17:33:00,
2013-01-25 11:38:00,68.1,59.9,30.17,WNW,285,8.0,10.0,75,0.00,,,0.00,Wunderground v.1.15,2013-01-25 17:38:00,
2013-01-25 11:43:00,68.2,59.2,30.17,West,270,8.0,10.0,73,0.00,,,0.00,Wunderground v.1.15,2013-01-25 17:43:00,
2013-01-25 11:53:00,68.2,60.0,30.16,West,273,9.0,12.0,75,0.00,,,0.00,Wunderground v.1.15,2013-01-25 17:53:00,
2013-01-25 11:58:00,68.3,59.3,30.16,WNW,298,8.0,12.0,73,0.00,,,0.00,Wunderground v.1.15,2013-01-25 17:58:00,
2013-01-25 12:08:00,68.0,59.0,30.15,West,261,10.0,10.0,73,0.00,,,0.00,Wunderground v.1.15,2013-01-25 18:08:00,
2013-01-25 12:13:00,68.2,59.2,30.15,WNW,290,9.0,10.0,73,0.00,,,0.00,Wunderground v.1.15,2013-01-25 18:13:00,
2013-01-25 12:23:00,68.6,59.2,30.14,West,271,8.0,9.0,72,0.00,,,0.00,Wunderground v.1.15,2013-01-25 18:23:00,
2013-01-25 12:28:00,69.1,60.1,30.14,West,273,9.0,12.0,73,0.00,,,0.00,Wunderground v.1.15,2013-01-25 18:28:00,
2013-01-25 12:33:00,69.1,59.3,30.14,WNW,293,8.0,18.0,71,0.00,,,0.00,Wunderground v.1.15,2013-01-25 18:33:00,
2013-01-25 12:43:00,69.4,59.2,30.14,WNW,299,7.0,9.0,70,0.00,,,0.00,Wunderground v.1.15,2013-01-25 18:43:00,
2013-01-25 12:48:00,68.5,58.3,30.14,WNW,298,7.0,18.0,70,0.00,,,0.00,Wunderground v.1.15,2013-01-25 18:48:00,
2013-01-25 12:58:00,68.4,58.6,30.14,NW,308,7.0,7.0,71,0.00,,,0.00,Wunderground v.1.15,2013-01-25 18:58:00,
2013-01-25 13:08:00,68.9,58.7,30.13,WNW,282,7.0,7.0,70,0.00,,,0.00,Wunderground v.1.15,2013-01-25 19:08:00,
2013-01-25 13:13:00,68.2,58.4,30.13,NW,304,7.0,7.0,71,0.00,,,0.00,Wunderground v.1.15,2013-01-25 19:13:00,
2013-01-25 13:18:00,67.9,57.8,30.13,West,277,8.0,10.0,70,0.00,,,0.00,Wunderground v.1.15,2013-01-25 19:18:00,
2013-01-25 13:23:00,67.5,57.8,30.13,WNW,284,9.0,10.0,71,0.00,,,0.00,Wunderground v.1.15,2013-01-25 19:23:00,
2013-01-25 13:33:00,66.9,58.0,30.13,West,269,8.0,17.0,73,0.00,,,0.00,Wunderground v.1.15,2013-01-25 19:33:00,
2013-01-25 13:38:00,66.7,57.8,30.14,NW,304,6.0,17.0,73,0.00,,,0.00,Wunderground v.1.15,2013-01-25 19:38:00,
2013-01-25 13:48:00,66.7,58.1,30.14,West,281,5.0,17.0,74,0.00,,,0.00,Wunderground v.1.15,2013-01-25 19:48:00,
2013-01-25 13:53:00,67.3,58.7,30.14,West,281,5.0,17.0,74,0.00,,,0.00,Wunderground v.1.15,2013-01-25 19:53:00,
2013-01-25 13:58:00,67.7,58.7,30.14,WNW,282,5.0,8.0,73,0.00,,,0.00,Wunderground v.1.15,2013-01-25 19:58:00,
2013-01-25 14:08:00,68.0,59.0,30.13,WNW,290,5.0,5.0,73,0.00,,,0.00,Wunderground v.1.15,2013-01-25 20:08:00,
2013-01-25 14:13:00,68.4,59.0,30.13,WNW,286,5.0,5.0,72,0.00,,,0.00,Wunderground v.1.15,2013-01-25 20:13:00,
2013-01-25 14:18:00,69.0,59.2,30.13,West,280,6.0,6.0,71,0.00,,,0.00,Wunderground v.1.15,2013-01-25 20:18:00,
2013-01-25 14:23:00,69.3,59.1,30.13,West,271,5.0,6.0,70,0.00,,,0.00,Wunderground v.1.15,2013-01-25 20:23:00,
2013-01-25 14:28:00,69.1,58.9,30.13,WNW,284,6.0,6.0,70,0.00,,,0.00,Wunderground v.1.15,2013-01-25 20:28:00,
2013-01-25 14:33:00,69.1,58.9,30.12,WNW,283,7.0,7.0,70,0.00,,,0.00,Wunderground v.1.15,2013-01-25 20:33:00,
2013-01-25 14:43:00,68.2,58.4,30.12,West,261,7.0,15.0,71,0.00,,,0.00,Wunderground v.1.15,2013-01-25 20:43:00,
2013-01-25 14:48:00,67.5,58.2,30.12,WSW,254,7.0,15.0,72,0.00,,,0.00,Wunderground v.1.15,2013-01-25 20:48:00,
2013-01-25 14:58:00,67.1,58.2,30.12,West,260,5.0,5.0,73,0.00,,,0.00,Wunderground v.1.15,2013-01-25 20:58:00,
2013-01-25 15:08:00,67.8,58.8,30.12,West,260,5.0,6.0,73,0.00,,,0.00,Wunderground v.1.15,2013-01-25 21:08:00,
2013-01-25 15:13:00,68.0,58.6,30.12,WNW,290,6.0,6.0,72,0.00,,,0.00,Wunderground v.1.15,2013-01-25 21:13:00,
2013-01-25 15:18:00,68.1,58.7,30.12,West,273,6.0,6.0,72,0.00,,,0.00,Wunderground v.1.15,2013-01-25 21:18:00,
2013-01-25 15:23:00,68.1,58.7,30.12,WNW,294,6.0,7.0,72,0.00,,,0.00,Wunderground v.1.15,2013-01-25 21:23:00,
2013-01-25 15:28:00,67.9,58.5,30.11,West,265,7.0,7.0,72,0.00,,,0.00,Wunderground v.1.15,2013-01-25 21:28:00,
2013-01-25 15:33:00,67.9,58.5,30.11,WNW,284,7.0,14.0,72,0.00,,,0.00,Wunderground v.1.15,2013-01-25 21:33:00,
2013-01-25 15:38:00,67.9,58.1,30.11,NW,314,6.0,14.0,71,0.00,,,0.00,Wunderground v.1.15,2013-01-25 21:38:00,
2013-01-25 15:48:00,67.5,58.2,30.11,WNW,291,7.0,14.0,72,0.00,,,0.00,Wunderground v.1.15,2013-01-25 21:48:00,
2013-01-25 15:53:00,67.5,58.2,30.11,West,275,7.0,14.0,72,0.00,,,0.00,Wunderground v.1.15,2013-01-25 21:53:00,
2013-01-25 15:59:00,67.3,58.0,30.11,West,261,7.0,7.0,72,0.00,,,0.00,Wunderground v.1.15,2013-01-25 21:59:00,
2013-01-25 16:08:00,67.0,57.7,30.11,WNW,287,5.0,6.0,72,0.00,,,0.00,Wunderground v.1.15,2013-01-25 22:08:00,
2013-01-25 16:18:00,66.8,57.9,30.11,WNW,298,6.0,7.0,73,0.00,,,0.00,Wunderground v.1.15,2013-01-25 22:18:00,
2013-01-25 16:23:00,66.7,57.8,30.11,West,267,7.0,7.0,73,0.00,,,0.00,Wunderground v.1.15,2013-01-25 22:23:00,
2013-01-25 16:28:00,66.7,57.8,30.11,WNW,288,6.0,7.0,73,0.00,,,0.00,Wunderground v.1.15,2013-01-25 22:28:00,
2013-01-25 16:33:00,66.5,58.0,30.11,SW,231,6.0,12.0,74,0.00,,,0.00,Wunderground v.1.15,2013-01-25 22:33:00,
2013-01-25 16:38:00,66.3,57.8,30.11,WNW,293,5.0,5.0,74,0.00,,,0.00,Wunderground v.1.15,2013-01-25 22:38:00,
2013-01-25 16:48:00,65.8,57.7,30.11,WNW,287,5.0,12.0,75,0.00,,,0.00,Wunderground v.1.15,2013-01-25 22:48:00,
2013-01-25 16:53:00,65.5,57.7,30.10,WNW,286,5.0,12.0,76,0.00,,,0.00,Wunderground v.1.15,2013-01-25 22:53:00,
2013-01-25 16:59:00,65.1,57.7,30.10,West,270,4.0,4.0,77,0.00,,,0.00,Wunderground v.1.15,2013-01-25 22:59:00,
2013-01-25 17:08:00,64.3,57.3,30.10,West,275,4.0,4.0,78,0.00,,,0.00,Wunderground v.1.15,2013-01-25 23:08:00,
2013-01-25 17:13:00,64.0,57.4,30.10,West,274,4.0,4.0,79,0.00,,,0.00,Wunderground v.1.15,2013-01-25 23:13:00,
2013-01-25 17:23:00,63.2,56.9,30.10,West,276,4.0,7.0,80,0.00,,,0.00,Wunderground v.1.15,2013-01-25 23:23:00,
2013-01-25 17:28:00,63.0,57.1,30.10,West,266,3.0,3.0,81,0.00,,,0.00,Wunderground v.1.15,2013-01-25 23:28:00,
2013-01-25 17:33:00,62.8,56.9,30.10,West,280,3.0,12.0,81,0.00,,,0.00,Wunderground v.1.15,2013-01-25 23:33:00,
2013-01-25 17:38:00,62.6,57.0,30.10,West,264,2.0,12.0,82,0.00,,,0.00,Wunderground v.1.15,2013-01-25 23:38:00,
2013-01-25 17:43:00,62.4,56.8,30.10,WNW,293,3.0,12.0,82,0.00,,,0.00,Wunderground v.1.15,2013-01-25 23:43:00,
2013-01-25 17:48:00,62.2,56.6,30.10,SW,232,3.0,12.0,82,0.00,,,0.00,Wunderground v.1.15,2013-01-25 23:48:00,
2013-01-25 17:53:00,62.1,56.9,30.10,West,265,3.0,12.0,83,0.00,,,0.00,Wunderground v.1.15,2013-01-25 23:53:00,
2013-01-25 17:59:00,62.0,56.8,30.10,West,277,3.0,3.0,83,0.00,,,0.00,Wunderground v.1.15,2013-01-25 23:59:00,
2013-01-25 18:08:00,61.8,56.9,30.10,WNW,300,3.0,3.0,84,0.00,,,0.00,Wunderground v.1.15,2013-01-26 00:08:00,
2013-01-25 18:13:00,61.7,56.8,30.10,WNW,286,3.0,3.0,84,0.00,,,0.00,Wunderground v.1.15,2013-01-26 00:13:00,
2013-01-25 18:18:00,61.5,56.6,30.09,West,267,4.0,5.0,84,0.00,,,0.00,Wunderground v.1.15,2013-01-26 00:18:00,
2013-01-25 18:23:00,61.4,56.8,30.09,West,274,3.0,5.0,85,0.00,,,0.00,Wunderground v.1.15,2013-01-26 00:23:00,
2013-01-25 18:28:00,61.2,56.7,30.09,WNW,290,3.0,3.0,85,0.00,,,0.00,Wunderground v.1.15,2013-01-26 00:28:00,
2013-01-25 18:38:00,60.9,56.7,30.10,WNW,299,2.0,2.0,86,0.00,,,0.00,Wunderground v.1.15,2013-01-26 00:38:00,
2013-01-25 18:43:00,60.8,56.6,30.10,WNW,299,1.0,8.0,86,0.00,,,0.00,Wunderground v.1.15,2013-01-26 00:43:00,
2013-01-25 18:48:00,60.6,56.4,30.09,WNW,299,1.0,8.0,86,0.00,,,0.00,Wunderground v.1.15,2013-01-26 00:48:00,
2013-01-25 18:53:00,60.4,56.2,30.09,WNW,285,1.0,8.0,86,0.00,,,0.00,Wunderground v.1.15,2013-01-26 00:53:00,
2013-01-25 18:59:00,60.2,56.3,30.09,WNW,285,1.0,1.0,87,0.00,,,0.00,Wunderground v.1.15,2013-01-26 00:59:00,
2013-01-25 19:08:00,59.9,56.0,30.09,WNW,285,1.0,1.0,87,0.00,,,0.00,Wunderground v.1.15,2013-01-26 01:08:00,
2013-01-25 19:13:00,59.8,55.9,30.09,WNW,285,1.0,1.0,87,0.00,,,0.00,Wunderground v.1.15,2013-01-26 01:13:00,
2013-01-25 19:18:00,59.7,56.1,30.09,WNW,285,1.0,1.0,88,0.00,,,0.00,Wunderground v.1.15,2013-01-26 01:18:00,
2013-01-25 19:23:00,59.6,56.0,30.09,WNW,285,1.0,1.0,88,0.00,,,0.00,Wunderground v.1.15,2013-01-26 01:23:00,
2013-01-25 19:28:00,59.5,56.3,30.09,WNW,285,1.0,1.0,89,0.00,,,0.00,Wunderground v.1.15,2013-01-26 01:28:00,
2013-01-25 19:33:00,59.4,56.2,30.09,WNW,285,1.0,6.0,89,0.00,,,0.00,Wunderground v.1.15,2013-01-26 01:33:00,
2013-01-25 19:43:00,59.2,56.0,30.09,WNW,285,1.0,6.0,89,0.00,,,0.00,Wunderground v.1.15,2013-01-26 01:43:00,
2013-01-25 19:48:00,59.1,55.9,30.10,WNW,285,0.0,6.0,89,0.00,,,0.00,Wunderground v.1.15,2013-01-26 01:48:00,
2013-01-25 19:53:00,59.1,56.2,30.10,WNW,285,0.0,6.0,90,0.00,,,0.00,Wunderground v.1.15,2013-01-26 01:53:00,
2013-01-25 19:58:00,59.0,56.1,30.10,WNW,285,0.0,1.0,90,0.00,,,0.00,Wunderground v.1.15,2013-01-26 01:58:00,
2013-01-25 20:08:00,58.8,55.9,30.10,WNW,285,1.0,1.0,90,0.00,,,0.00,Wunderground v.1.15,2013-01-26 02:08:00,
2013-01-25 20:18:00,58.7,55.8,30.10,WNW,285,1.0,1.0,90,0.00,,,0.00,Wunderground v.1.15,2013-01-26 02:18:00,
2013-01-25 20:23:00,58.6,56.0,30.10,WNW,285,1.0,1.0,91,0.00,,,0.00,Wunderground v.1.15,2013-01-26 02:23:00,
2013-01-25 20:28:00,58.6,56.0,30.10,WNW,285,0.0,0.0,91,0.00,,,0.00,Wunderground v.1.15,2013-01-26 02:28:00,
2013-01-25 20:33:00,58.6,56.0,30.11,WNW,285,0.0,3.0,91,0.00,,,0.00,Wunderground v.1.15,2013-01-26 02:33:00,
2013-01-25 20:38:00,58.5,55.9,30.11,WNW,285,0.0,3.0,91,0.00,,,0.00,Wunderground v.1.15,2013-01-26 02:38:00,
2013-01-25 20:43:00,58.5,55.9,30.11,WNW,285,0.0,3.0,91,0.00,,,0.00,Wunderground v.1.15,2013-01-26 02:43:00,
2013-01-25 20:53:00,58.4,55.8,30.11,WNW,285,0.0,3.0,91,0.00,,,0.00,Wunderground v.1.15,2013-01-26 02:53:00,
2013-01-25 20:58:00,58.4,55.8,30.11,WNW,285,0.0,0.0,91,0.00,,,0.00,Wunderground v.1.15,2013-01-26 02:58:00,
2013-01-25 21:08:00,58.3,55.7,30.12,WNW,285,0.0,0.0,91,0.00,,,0.00,Wunderground v.1.15,2013-01-26 03:08:00,
2013-01-25 21:13:00,58.3,55.7,30.12,WNW,285,0.0,0.0,91,0.00,,,0.00,Wunderground v.1.15,2013-01-26 03:13:00,
2013-01-25 21:18:00,58.2,55.6,30.12,WNW,285,0.0,0.0,91,0.00,,,0.00,Wunderground v.1.15,2013-01-26 03:18:00,
2013-01-25 21:28:00,58.2,55.9,30.13,WNW,285,0.0,0.0,92,0.00,,,0.00,Wunderground v.1.15,2013-01-26 03:28:00,
2013-01-25 21:33:00,58.1,55.5,30.13,WNW,285,0.0,2.0,91,0.00,,,0.00,Wunderground v.1.15,2013-01-26 03:33:00,
2013-01-25 21:38:00,58.0,55.4,30.13,WNW,285,0.0,2.0,91,0.00,,,0.00,Wunderground v.1.15,2013-01-26 03:38:00,
2013-01-25 21:43:00,57.9,55.3,30.13,WNW,285,0.0,2.0,91,0.00,,,0.00,Wunderground v.1.15,2013-01-26 03:43:00,
2013-01-25 21:53:00,57.5,54.9,30.13,WNW,285,0.0,2.0,91,0.00,,,0.00,Wunderground v.1.15,2013-01-26 03:53:00,
2013-01-25 21:58:00,57.0,54.1,30.13,WNW,285,0.0,0.0,90,0.00,,,0.00,Wunderground v.1.15,2013-01-26 03:58:00,
2013-01-25 22:08:00,55.8,52.6,30.13,WNW,285,0.0,0.0,89,0.00,,,0.00,Wunderground v.1.15,2013-01-26 04:08:00,
2013-01-25 22:13:00,55.2,52.0,30.13,WNW,285,0.0,0.0,89,0.00,,,0.00,Wunderground v.1.15,2013-01-26 04:13:00,
2013-01-25 22:18:00,54.8,51.9,30.13,WNW,285,0.0,0.0,90,0.00,,,0.00,Wunderground v.1.15,2013-01-26 04:18:00,
2013-01-25 22:28:00,54.6,52.0,30.13,WNW,285,0.0,0.0,91,0.00,,,0.00,Wunderground v.1.15,2013-01-26 04:28:00,
2013-01-25 22:33:00,54.9,52.9,30.13,WNW,285,0.0,1.0,93,0.00,,,0.00,Wunderground v.1.15,2013-01-26 04:33:00,
2013-01-25 22:38:00,55.3,53.3,30.13,WNW,285,0.0,1.0,93,0.00,,,0.00,Wunderground v.1.15,2013-01-26 04:38:00,
2013-01-25 22:48:00,55.8,53.8,30.13,WNW,285,0.0,1.0,93,0.00,,,0.00,Wunderground v.1.15,2013-01-26 04:48:00,
2013-01-25 22:53:00,55.8,53.8,30.13,WNW,285,0.0,1.0,93,0.00,,,0.00,Wunderground v.1.15,2013-01-26 04:53:00,
2013-01-25 22:58:00,55.6,53.6,30.13,WNW,285,0.0,0.0,93,0.00,,,0.00,Wunderground v.1.15,2013-01-26 04:58:00,
2013-01-25 23:03:00,55.5,53.2,30.13,WNW,285,0.0,0.0,92,0.00,,,0.00,Wunderground v.1.15,2013-01-26 05:03:00,
2013-01-25 23:08:00,55.4,53.1,30.13,WNW,285,0.0,0.0,92,0.00,,,0.00,Wunderground v.1.15,2013-01-26 05:08:00,
2013-01-25 23:13:00,55.0,52.7,30.13,WNW,285,0.0,0.0,92,0.00,,,0.00,Wunderground v.1.15,2013-01-26 05:13:00,
2013-01-25 23:18:00,54.2,51.6,30.13,WNW,285,0.0,0.0,91,0.00,,,0.00,Wunderground v.1.15,2013-01-26 05:18:00,
2013-01-25 23:23:00,53.7,51.1,30.12,WNW,285,0.0,0.0,91,0.00,,,0.00,Wunderground v.1.15,2013-01-26 05:23:00,
2013-01-25 23:28:00,53.4,51.1,30.12,WNW,285,0.0,0.0,92,0.00,,,0.00,Wunderground v.1.15,2013-01-26 05:28:00,
2013-01-25 23:38:00,53.0,50.7,30.12,WNW,285,0.0,0.0,92,0.00,,,0.00,Wunderground v.1.15,2013-01-26 05:38:00,
2013-01-25 23:43:00,52.7,50.4,30.12,WNW,285,0.0,0.0,92,0.00,,,0.00,Wunderground v.1.15,2013-01-26 05:43:00,
2013-01-25 23:48:00,52.4,50.1,30.12,WNW,285,0.0,0.0,92,0.00,,,0.00,Wunderground v.1.15,2013-01-26 05:48:00,
2013-01-25 23:53:00,52.1,49.8,30.12,WNW,285,0.0,0.0,92,0.00,,,0.00,Wunderground v.1.15,2013-01-26 05:53:00,
2013-01-25 23:59:00,51.8,49.5,30.12,WNW,285,0.0,0.0,92,0.00,,,0.00,Wunderground v.1.15,2013-01-26 05:59:00,